Time;durP1;ratioP1;P1;durP2;ratioP2;P2;SDS_P1;SDS_P2;PMS_P1;PMS_P2;Temp;Humidity;BMP_temperature;BMP_pressure;BME280_temperature;BME280_humidity;BME280_pressure;Samples;Min_cycle;Max_cycle;Signal;HPM_P1;HPM_P2
2023/12/14 00:00:33;;;;;;;13.73;6.60;;;;;;;;;;5016071;28;20051;-71
2023/12/14 00:02:59;;;;;;;13.77;8.10;;;;;;;;;;5033844;28;20040;-72
2023/12/14 00:05:26;;;;;;;12.52;6.70;;;;;;;;;;5032781;28;20516;-71
2023/12/14 00:07:52;;;;;;;12.48;6.70;;;;;;;;;;5033519;28;20507;-71
2023/12/14 00:10:17;;;;;;;15.80;6.43;;;;;;;;;;5033050;28;20120;-71
2023/12/14 00:12:44;;;;;;;11.55;6.72;;;;;;;;;;5032628;28;20037;-71
2023/12/14 00:15:10;;;;;;;12.15;6.32;;;;;;;;;;5033206;28;20047;-71
2023/12/14 00:17:36;;;;;;;11.68;5.60;;;20.70;11.10;;;;;;5033428;28;20534;-71
2023/12/14 00:20:03;;;;;;;13.38;6.57;;;;;;;;;;5032400;28;20041;-70
2023/12/14 00:22:29;;;;;;;12.35;5.68;;;;;;;;;;5033237;28;20516;-71
2023/12/14 00:24:54;;;;;;;14.02;6.60;;;20.40;11.20;;;;;;5032414;28;20086;-72
2023/12/14 00:27:20;;;;;;;12.95;6.57;;;;;;;;;;5033450;28;20377;-71
2023/12/14 00:29:46;;;;;;;12.60;6.45;;;;;;;;;;5032898;28;20106;-70
2023/12/14 00:32:12;;;;;;;13.27;6.20;;;;;;;;;;5032864;28;20070;-71
2023/12/14 00:34:38;;;;;;;13.73;6.57;;;;;;;;;;5032989;28;20041;-71
2023/12/14 00:37:04;;;;;;;13.70;6.97;;;;;;;;;;5032920;28;20059;-71
2023/12/14 00:39:30;;;;;;;13.18;6.45;;;20.60;10.90;;;;;;5032355;28;20041;-70
2023/12/14 00:41:55;;;;;;;14.15;6.68;;;20.50;10.00;;;;;;5032515;28;20094;-71
2023/12/14 00:44:21;;;;;;;12.40;6.28;;;;;;;;;;5032540;28;20094;-71
2023/12/14 00:46:47;;;;;;;12.13;6.40;;;;;;;;;;5033424;28;20074;-71
2023/12/14 00:49:13;;;;;;;9.65;5.68;;;;;;;;;;5032824;28;20036;-71
2023/12/14 00:51:40;;;;;;;7.68;5.68;;;;;;;;;;5032707;28;20405;-71
2023/12/14 00:54:06;;;;;;;9.52;6.40;;;;;;;;;;5032817;28;20120;-71
2023/12/14 00:56:32;;;;;;;7.75;5.47;;;;;;;;;;5015723;28;20037;-71
2023/12/14 00:58:58;;;;;;;11.20;5.80;;;;;;;;;;5019491;28;20068;-71
2023/12/14 01:01:24;;;;;;;11.07;6.00;;;;;;;;;;5035104;28;20044;-71
2023/12/14 01:03:50;;;;;;;8.38;5.50;;;;;;;;;;5036041;28;20099;-70
2023/12/14 01:06:16;;;;;;;11.70;5.95;;;;;;;;;;5036427;28;20037;-71
2023/12/14 01:08:42;;;;;;;9.07;5.78;;;;;;;;;;5036263;28;20489;-71
2023/12/14 01:11:07;;;;;;;12.40;7.43;;;20.60;1.00;;;;;;5035135;28;20048;-71
2023/12/14 01:13:33;;;;;;;11.15;7.00;;;20.50;1.00;;;;;;5036528;28;20087;-71
2023/12/14 01:15:58;;;;;;;8.32;5.68;;;20.40;1.00;;;;;;5036685;28;20045;-71
2023/12/14 01:18:24;;;;;;;11.15;5.68;;;;;;;;;;5036313;28;20041;-71
2023/12/14 01:20:50;;;;;;;8.70;5.90;;;;;;;;;;5035838;28;20102;-72
2023/12/14 01:23:16;;;;;;;11.52;6.57;;;;;;;;;;5036550;28;20041;-71
2023/12/14 01:25:42;;;;;;;11.55;6.13;;;20.40;1.00;;;;;;5036183;28;20040;-71
2023/12/14 01:28:08;;;;;;;8.48;5.35;;;20.30;1.00;;;;;;5020013;28;20072;-71
2023/12/14 01:30:34;;;;;;;9.63;6.05;;;20.40;1.00;;;;;;5036082;28;20500;-70
2023/12/14 01:33:00;;;;;;;9.13;5.25;;;;;;;;;;5036385;28;20036;-71
2023/12/14 01:35:25;;;;;;;8.35;5.32;;;20.40;1.00;;;;;;5019583;28;20032;-71
2023/12/14 01:37:51;;;;;;;12.23;6.65;;;;;;;;;;5036118;28;20033;-71
2023/12/14 01:40:20;;;;;;;11.75;5.53;;;20.50;1.00;;;;;;5035975;28;20048;-71
2023/12/14 01:42:46;;;;;;;10.10;6.32;;;;;;;;;;5036105;28;20041;-71
2023/12/14 01:45:15;;;;;;;10.00;5.90;;;;;;;;;;5036072;28;20052;-71
2023/12/14 01:47:41;;;;;;;7.70;5.63;;;;;;;;;;5036114;28;20041;-71
2023/12/14 01:50:07;;;;;;;8.00;5.80;;;;;;;;;;5019421;28;20033;-71
2023/12/14 01:52:32;;;;;;;8.23;5.43;;;20.40;1.00;;;;;;5036295;28;20048;-71
2023/12/14 01:54:58;;;;;;;8.27;5.38;;;;;;;;;;5036239;28;20049;-71
2023/12/14 01:57:25;;;;;;;6.78;5.40;;;;;;;;;;5035912;28;20036;-71
2023/12/14 01:59:51;;;;;;;7.82;5.35;;;;;;;;;;5035798;28;20408;-71
2023/12/14 02:02:17;;;;;;;10.82;6.20;;;;;;;;;;5035814;28;20036;-71
2023/12/14 02:04:43;;;;;;;8.82;5.47;;;;;;;;;;5019303;28;20045;-71
2023/12/14 02:07:09;;;;;;;9.25;5.95;;;;;;;;;;5035855;28;20606;-71
2023/12/14 02:09:35;;;;;;;10.45;5.65;;;;;;;;;;5035216;28;20037;-71
2023/12/14 02:12:00;;;;;;;9.63;5.90;;;20.50;1.00;;;;;;5035545;28;20072;-71
2023/12/14 02:14:26;;;;;;;8.52;5.85;;;20.40;1.00;;;;;;5035345;28;20045;-71
2023/12/14 02:16:52;;;;;;;8.38;5.53;;;20.40;1.00;;;;;;5035594;28;20106;-71
2023/12/14 02:19:17;;;;;;;11.55;6.07;;;20.40;1.00;;;;;;5035496;28;20463;-71
2023/12/14 02:21:43;;;;;;;8.52;5.60;;;;;;;;;;5035516;28;20079;-71
2023/12/14 02:24:09;;;;;;;7.28;5.18;;;;;;;;;;5018762;28;20037;-71
2023/12/14 02:26:35;;;;;;;6.88;5.05;;;20.50;1.00;;;;;;5035340;28;20072;-71
2023/12/14 02:29:01;;;;;;;7.97;5.40;;;20.50;1.00;;;;;;5035368;28;20113;-70
2023/12/14 02:31:26;;;;;;;9.13;5.45;;;20.40;1.00;;;;;;5035059;28;20036;-70
2023/12/14 02:33:52;;;;;;;9.63;5.57;;;;;;;;;;5018762;28;20052;-71
2023/12/14 02:36:18;;;;;;;9.70;5.80;;;;;;;;;;5035225;28;20476;-72
2023/12/14 02:38:44;;;;;;;9.57;6.20;;;;;;;;;;5033860;28;20137;-70
2023/12/14 02:41:10;;;;;;;12.05;6.55;;;;;;;;;;5017389;28;20041;-70
2023/12/14 02:43:37;;;;;;;13.50;6.75;;;;;;;;;;5034922;28;20041;-71
2023/12/14 02:46:04;;;;;;;15.68;6.50;;;;;;;;;;5034704;28;20041;-71
2023/12/14 02:48:30;;;;;;;13.50;6.22;;;;;;;;;;5018622;28;20374;-70
2023/12/14 02:50:56;;;;;;;15.73;6.95;;;20.40;1.00;;;;;;5034589;28;20048;-71
2023/12/14 02:53:22;;;;;;;14.30;7.95;;;20.40;1.00;;;;;;5034793;28;20044;-71
2023/12/14 02:55:48;;;;;;;11.05;6.57;;;;;;;;;;5018398;28;20098;-71
2023/12/14 02:58:14;;;;;;;11.18;7.13;;;;;;;;;;5018088;28;20513;-70
2023/12/14 03:00:40;;;;;;;15.23;6.82;;;;;;;;;;5034431;28;20051;-71
2023/12/14 03:03:05;;;;;;;12.23;7.13;;;20.20;1.00;;;;;;5034507;28;20041;-71
2023/12/14 03:05:31;;;;;;;10.80;6.28;;;;;;;;;;5034469;28;20095;-71
2023/12/14 03:07:57;;;;;;;11.10;7.00;;;;;;;;;;5034635;28;20041;-71
2023/12/14 03:10:23;;;;;;;10.50;6.65;;;;;;;;;;5034255;28;20052;-71
2023/12/14 03:12:49;;;;;;;16.15;7.47;;;20.30;1.00;;;;;;5034404;28;20040;-70
2023/12/14 03:15:18;;;;;;;10.60;6.82;;;;;;;;;;5034188;28;20032;-70
2023/12/14 03:17:44;;;;;;;9.85;5.70;;;;;;;;;;5034428;28;20086;-71
2023/12/14 03:20:10;;;;;;;15.52;6.88;;;;;;;;;;5033724;28;20041;-70
2023/12/14 03:22:38;;;;;;;10.18;5.75;;;;;;;;;;5034044;28;20048;-70
2023/12/14 03:25:04;;;;;;;11.95;6.78;;;;;;;;;;5034008;28;20179;-70
2023/12/14 03:27:29;;;;;;;15.02;7.65;;;20.50;1.00;;;;;;5034223;28;20136;-70
2023/12/14 03:29:55;;;;;;;12.95;5.95;;;20.20;1.00;;;;;;5033689;28;20619;-67
2023/12/14 03:32:21;;;;;;;16.92;7.95;;;20.40;1.00;;;;;;5034153;28;20416;-70
2023/12/14 03:34:47;;;;;;;14.05;6.38;;;;;;;;;;5035321;22;20027;-69
2023/12/14 03:37:13;;;;;;;11.35;6.35;;;;;;;;;;5053896;28;20051;-71
2023/12/14 03:39:39;;;;;;;13.60;6.93;;;;;;;;;;5037008;28;20048;-69
2023/12/14 03:42:05;;;;;;;16.63;7.57;;;;;;;;;;5053883;28;20044;-70
2023/12/14 03:44:31;;;;;;;16.30;7.93;;;;;;;;;;5053768;28;20404;-70
2023/12/14 03:46:57;;;;;;;13.20;7.22;;;;;;;;;;5053576;28;20040;-69
2023/12/14 03:49:23;;;;;;;17.20;6.78;;;;;;;;;;5071457;28;20131;-71
2023/12/14 03:51:49;;;;;;;19.58;7.53;;;;;;;;;;5036981;28;20036;-70
2023/12/14 03:54:15;;;;;;;17.50;7.43;;;;;;;;;;5071319;28;20124;-70
2023/12/14 03:56:41;;;;;;;17.52;8.38;;;;;;;;;;5036723;28;20037;-70
2023/12/14 03:59:07;;;;;;;15.52;7.10;;;;;;;;;;5053621;28;20117;-70
2023/12/14 04:01:33;;;;;;;17.33;8.00;;;;;;;;;;5053177;28;20553;-70
2023/12/14 04:03:59;;;;;;;13.30;7.70;;;;;;;;;;5036904;28;20044;-70
2023/12/14 04:06:26;;;;;;;17.42;8.20;;;;;;;;;;5053395;28;20040;-70
2023/12/14 04:08:51;;;;;;;15.23;7.70;;;20.10;6.50;;;;;;5053316;28;20105;-70
2023/12/14 04:11:17;;;;;;;18.83;8.82;;;20.40;6.50;;;;;;5053146;28;20488;-70
2023/12/14 04:13:43;;;;;;;15.75;8.25;;;;;;;;;;5053305;28;20045;-71
2023/12/14 04:16:09;;;;;;;14.80;7.53;;;;;;;;;;5053210;28;20052;-71
2023/12/14 04:18:35;;;;;;;18.23;8.93;;;;;;;;;;5053380;28;20036;-70
2023/12/14 04:21:01;;;;;;;13.35;8.00;;;;;;;;;;5053303;28;20032;-71
2023/12/14 04:23:27;;;;;;;15.68;7.65;;;;;;;;;;5071280;28;20072;-70
2023/12/14 04:25:53;;;;;;;15.25;7.45;;;20.10;7.70;;;;;;5053232;28;20045;-70
2023/12/14 04:28:18;;;;;;;15.70;8.60;;;20.30;9.00;;;;;;5071304;28;20040;-70
2023/12/14 04:30:44;;;;;;;17.73;8.88;;;20.20;9.00;;;;;;5053058;28;20220;-70
2023/12/14 04:33:09;;;;;;;15.98;7.85;;;20.20;7.20;;;;;;5057106;28;20488;-70
2023/12/14 04:35:36;;;;;;;20.80;9.00;;;;;;;;;;5056918;28;20040;-70
2023/12/14 04:38:02;;;;;;;23.48;8.35;;;;;;;;;;5057602;28;20090;-70
2023/12/14 04:40:28;;;;;;;17.42;9.23;;;;;;;;;;5057021;28;20102;-70
2023/12/14 04:42:54;;;;;;;17.60;7.53;;;;;;;;;;5057332;28;20037;-71
2023/12/14 04:45:20;;;;;;;17.55;7.45;;;;;;;;;;5057309;28;20052;-71
2023/12/14 04:47:46;;;;;;;16.70;8.35;;;;;;;;;;5057206;28;20119;-71
2023/12/14 04:50:12;;;;;;;20.17;9.48;;;;;;;;;;5057205;28;20136;-71
2023/12/14 04:52:38;;;;;;;18.27;8.13;;;20.10;8.80;;;;;;5040281;28;20499;-69
2023/12/14 04:55:04;;;;;;;15.75;9.10;;;;;;;;;;5057170;28;20051;-70
2023/12/14 04:57:29;;;;;;;18.17;8.43;;;20.10;8.40;;;;;;5057223;28;20063;-70
2023/12/14 04:59:55;;;;;;;16.75;8.27;;;20.20;7.80;;;;;;5056541;28;20492;-70
2023/12/14 05:02:21;;;;;;;18.95;8.98;;;;;;;;;;5056823;28;20404;-71
2023/12/14 05:04:47;;;;;;;17.77;8.00;;;;;;;;;;5056779;28;20095;-71
2023/12/14 05:07:13;;;;;;;16.60;9.00;;;;;;;;;;5056775;28;20127;-70
2023/12/14 05:09:39;;;;;;;17.92;9.20;;;;;;;;;;5056649;28;20361;-70
2023/12/14 05:12:05;;;;;;;20.08;8.98;;;20.40;5.80;;;;;;5056879;28;20044;-70
2023/12/14 05:14:30;;;;;;;16.02;9.02;;;20.20;8.00;;;;;;5039840;28;20090;-69
2023/12/14 05:16:56;;;;;;;18.40;8.20;;;20.20;8.50;;;;;;5056854;28;20431;-70
2023/12/14 05:19:22;;;;;;;20.88;8.45;;;;;;;;;;5056445;28;20040;-70
2023/12/14 05:21:48;;;;;;;18.33;7.72;;;;;;;;;;5039604;28;20407;-71
2023/12/14 05:24:14;;;;;;;19.83;9.07;;;;;;;;;;5056336;28;20040;-71
2023/12/14 05:26:40;;;;;;;12.45;7.35;;;;;;;;;;5056246;28;20411;-70
2023/12/14 05:29:05;;;;;;;15.82;7.43;;;20.10;7.40;;;;;;5056254;28;20043;-71
2023/12/14 05:31:31;;;;;;;19.02;8.68;;;20.00;7.10;;;;;;5056045;28;20448;-70
2023/12/14 05:33:57;;;;;;;17.05;8.98;;;;;;;;;;5056207;28;20093;-70
2023/12/14 05:36:23;;;;;;;17.50;8.70;;;;;;;;;;5056263;28;20170;-70
2023/12/14 05:38:49;;;;;;;18.63;9.30;;;;;;;;;;5056141;28;20500;-71
2023/12/14 05:41:15;;;;;;;18.48;9.02;;;;;;;;;;5055868;28;20482;-70
2023/12/14 05:43:41;;;;;;;16.17;8.35;;;20.00;6.00;;;;;;5055185;28;20048;-70
2023/12/14 05:46:07;;;;;;;17.70;8.68;;;;;;;;;;5055869;28;20131;-70
2023/12/14 05:48:33;;;;;;;17.08;8.02;;;;;;;;;;5039255;28;20040;-71
2023/12/14 05:51:01;;;;;;;19.20;8.32;;;20.00;5.80;;;;;;5055722;28;20125;-70
2023/12/14 05:53:26;;;;;;;19.13;9.02;;;20.10;8.00;;;;;;5055882;28;20037;-71
2023/12/14 05:55:52;;;;;;;17.33;9.10;;;20.10;9.00;;;;;;5055752;28;20051;-70
2023/12/14 05:58:18;;;;;;;16.63;9.15;;;20.20;7.40;;;;;;5055965;28;20043;-71
2023/12/14 06:00:44;;;;;;;17.42;8.55;;;20.20;8.60;;;;;;5072284;28;20400;-70
2023/12/14 06:03:10;;;;;;;17.15;9.68;;;;;;;;;;5055892;28;20051;-70
2023/12/14 06:05:36;;;;;;;17.75;9.02;;;;;;;;;;5038879;28;20043;-70
2023/12/14 06:08:01;;;;;;;22.02;10.07;;;20.10;10.70;;;;;;5038909;28;20119;-70
2023/12/14 06:10:27;;;;;;;18.60;10.20;;;20.00;11.20;;;;;;5055584;28;20038;-70
2023/12/14 06:12:53;;;;;;;24.05;9.35;;;;;;;;;;5055566;28;20041;-70
2023/12/14 06:15:19;;;;;;;17.70;8.75;;;;;;;;;;5055327;28;20040;-69
2023/12/14 06:17:45;;;;;;;17.20;9.50;;;;;;;;;;5038996;28;20063;-70
2023/12/14 06:20:11;;;;;;;19.27;9.05;;;;;;;;;;5038754;28;20072;-70
2023/12/14 06:22:37;;;;;;;20.85;9.30;;;;;;;;;;5038607;28;20033;-70
2023/12/14 06:25:03;;;;;;;15.27;8.45;;;;;;;;;;5038407;28;20404;-70
2023/12/14 06:27:29;;;;;;;18.50;8.90;;;19.80;12.20;;;;;;5054956;28;20037;-69
2023/12/14 06:29:55;;;;;;;19.15;8.80;;;;;;;;;;5054808;28;20037;-70
2023/12/14 06:32:21;;;;;;;20.90;9.48;;;;;;;;;;5055157;28;20063;-70
2023/12/14 06:34:47;;;;;;;18.88;10.20;;;19.80;8.70;;;;;;5054830;28;20040;-70
2023/12/14 06:37:13;;;;;;;23.45;9.48;;;;;;;;;;5038327;28;20492;-70
2023/12/14 06:39:41;;;;;;;18.70;8.93;;;20.20;9.00;;;;;;5054675;28;20385;-71
2023/12/14 06:42:06;;;;;;;14.70;8.65;;;20.00;11.10;;;;;;5053080;28;20056;-70
2023/12/14 06:44:33;;;;;;;17.15;7.63;;;;;;;;;;5053465;28;20047;-71
2023/12/14 06:46:59;;;;;;;20.77;9.98;;;;;;;;;;5053769;28;20051;-69
2023/12/14 06:49:26;;;;;;;16.10;9.43;;;;;;;;;;5038109;28;20036;-70
2023/12/14 06:51:52;;;;;;;17.13;9.23;;;;;;;;;;5037970;28;20051;-70
2023/12/14 06:54:18;;;;;;;15.27;9.05;;;;;;;;;;5054576;28;20044;-70
2023/12/14 06:56:44;;;;;;;18.55;9.02;;;19.90;9.80;;;;;;5053877;28;20440;-69
2023/12/14 06:59:10;;;;;;;18.50;9.52;;;;;;;;;;5054226;28;20132;-70
2023/12/14 07:01:36;;;;;;;22.67;9.63;;;;;;;;;;5037366;28;20036;-70
2023/12/14 07:04:05;;;;;;;25.10;9.95;;;;;;;;;;5037938;28;20047;-70
2023/12/14 07:06:31;;;;;;;22.33;9.07;;;;;;;;;;5053736;28;20083;-70
2023/12/14 07:08:57;;;;;;;16.95;9.43;;;;;;;;;;5053997;28;20068;-70
2023/12/14 07:11:23;;;;;;;22.45;9.10;;;;;;;;;;5054203;28;20530;-71
2023/12/14 07:13:49;;;;;;;22.67;9.20;;;;;;;;;;5054386;28;20048;-70
2023/12/14 07:16:21;;;;;;;23.45;9.75;;;;;;;;;;5088869;28;20389;-71
2023/12/14 07:18:47;;;;;;;20.95;10.30;;;;;;;;;;5087757;28;20044;-71
2023/12/14 07:21:13;;;;;;;18.90;9.23;;;;;;;;;;5087401;28;20078;-71
2023/12/14 07:23:39;;;;;;;17.63;8.63;;;;;;;;;;5087539;28;20083;-71
2023/12/14 07:26:05;;;;;;;20.30;10.20;;;;;;;;;;5083720;28;20491;-72
2023/12/14 07:28:32;;;;;;;16.30;9.73;;;;;;;;;;5074167;28;20036;-71
2023/12/14 07:30:58;;;;;;;23.10;8.82;;;;;;;;;;5087550;28;20048;-71
2023/12/14 07:33:24;;;;;;;15.82;8.40;;;;;;;;;;5087749;28;20083;-72
2023/12/14 07:35:50;;;;;;;17.23;8.98;;;;;;;;;;5051943;28;20068;-71
2023/12/14 07:38:16;;;;;;;20.75;9.55;;;;;;;;;;5068141;28;20044;-71
2023/12/14 07:40:42;;;;;;;16.27;8.77;;;;;;;;;;5072102;28;20402;-71
2023/12/14 07:43:08;;;;;;;17.58;9.02;;;;;;;;;;5077451;28;20271;-71
2023/12/14 07:45:34;;;;;;;21.65;8.98;;;;;;;;;;5075515;28;20048;-70
2023/12/14 07:48:00;;;;;;;18.08;9.63;;;;;;;;;;5083752;28;20373;-69
2023/12/14 07:50:26;;;;;;;19.40;10.35;;;;;;;;;;5083751;28;20480;-71
2023/12/14 07:52:53;;;;;;;19.15;8.75;;;;;;;;;;5069329;28;20041;-69
2023/12/14 07:55:20;;;;;;;20.55;9.43;;;;;;;;;;5073235;28;20050;-71
2023/12/14 07:57:46;;;;;;;18.52;9.75;;;20.10;7.80;;;;;;5063441;28;20040;-69
2023/12/14 08:00:12;;;;;;;17.33;9.50;;;;;;;;;;5073792;28;20090;-68
2023/12/14 08:02:38;;;;;;;18.85;9.32;;;20.00;8.10;;;;;;5083194;28;20655;-69
2023/12/14 08:05:04;;;;;;;17.63;9.23;;;;;;;;;;5083506;28;20040;-69
2023/12/14 08:07:31;;;;;;;17.30;8.63;;;;;;;;;;5083219;28;20048;-69
2023/12/14 08:09:57;;;;;;;17.58;9.52;;;;;;;;;;5066774;28;20397;-70
2023/12/14 08:12:24;;;;;;;20.52;10.05;;;;;;;;;;5063317;28;20052;-69
2023/12/14 08:14:50;;;;;;;19.88;9.90;;;;;;;;;;5062613;28;20406;-70
2023/12/14 08:17:16;;;;;;;18.77;9.80;;;;;;;;;;5062922;28;20052;-70
2023/12/14 08:19:42;;;;;;;19.27;9.95;;;;;;;;;;5062689;28;20564;-70
2023/12/14 08:22:11;;;;;;;23.83;10.07;;;;;;;;;;5062617;28;20033;-69
2023/12/14 08:24:37;;;;;;;16.30;9.02;;;20.30;6.90;;;;;;5062160;28;20567;-70
2023/12/14 08:27:03;;;;;;;21.13;9.82;;;;;;;;;;5053123;28;20129;-69
2023/12/14 08:29:29;;;;;;;18.05;9.52;;;;;;;;;;5060240;28;20396;-69
2023/12/14 08:31:57;;;;;;;20.75;9.90;;;;;;;;;;5070340;28;20041;-69
2023/12/14 08:34:24;;;;;;;23.15;9.45;;;20.20;6.60;;;;;;5072496;28;20500;-69
2023/12/14 08:36:49;;;;;;;22.92;12.07;;;20.20;9.70;;;;;;5074065;28;20442;-69
2023/12/14 08:39:15;;;;;;;22.10;10.32;;;;;;;;;;5072871;28;20041;-69
2023/12/14 08:41:41;;;;;;;19.48;9.80;;;;;;;;;;5072921;28;20055;-69
2023/12/14 08:44:08;;;;;;;20.98;10.38;;;20.00;6.60;;;;;;5065468;28;20029;-69
2023/12/14 08:46:44;;;;;;;29.23;10.63;;;;;;;;;;5064202;28;20044;-68
2023/12/14 08:49:10;;;;;;;22.58;10.23;;;20.20;5.70;;;;;;5072466;28;20530;-68
2023/12/14 08:51:36;;;;;;;29.30;10.60;;;20.30;9.80;;;;;;5072268;28;20037;-69
2023/12/14 08:54:02;;;;;;;20.50;10.15;;;;;;;;;;5056110;28;20054;-69
2023/12/14 08:56:28;;;;;;;22.60;10.65;;;;;;;;;;5072479;28;20040;-69
2023/12/14 08:58:54;;;;;;;24.45;10.70;;;;;;;;;;5073600;28;20041;-70
2023/12/14 09:01:23;;;;;;;20.85;10.82;;;;;;;;;;5072188;28;20072;-69
2023/12/14 09:03:50;;;;;;;23.75;10.60;;;;;;;;;;5072364;28;20036;-69
2023/12/14 09:06:18;;;;;;;19.35;11.95;;;20.40;4.10;;;;;;5072433;28;20207;-69
2023/12/14 09:08:45;;;;;;;21.30;10.10;;;20.10;4.30;;;;;;5073483;28;20041;-69
2023/12/14 09:11:11;;;;;;;19.08;10.57;;;20.20;4.60;;;;;;5071908;28;20043;-69
2023/12/14 09:13:37;;;;;;;16.02;9.27;;;;;;;;;;5072168;28;20036;-68
2023/12/14 09:16:03;;;;;;;22.70;9.90;;;;;;;;;;5055097;28;20491;-70
2023/12/14 09:18:30;;;;;;;18.30;10.55;;;;;;;;;;5072542;28;20052;-69
2023/12/14 09:20:56;;;;;;;20.35;9.00;;;20.20;5.90;;;;;;5071690;28;20040;-69
2023/12/14 09:23:22;;;;;;;18.10;9.40;;;;;;;;;;5072805;28;20039;-68
2023/12/14 09:25:47;;;;;;;22.83;9.45;;;20.10;3.10;;;;;;5065893;28;20037;-69
2023/12/14 09:28:13;;;;;;;21.00;9.73;;;;;;;;;;5072806;28;20071;-69
2023/12/14 09:30:39;;;;;;;20.67;9.50;;;;;;;;;;5071685;28;20044;-69
2023/12/14 09:33:08;;;;;;;17.98;9.85;;;;;;;;;;5071711;28;20040;-69
2023/12/14 09:35:35;;;;;;;17.88;9.13;;;;;;;;;;5091160;22;20129;-70
2023/12/14 09:38:01;;;;;;;22.30;10.82;;;20.10;3.40;;;;;;5074104;28;20056;-70
2023/12/14 09:40:26;;;;;;;20.50;9.70;;;20.10;2.50;;;;;;5074676;28;20044;-69
2023/12/14 09:42:53;;;;;;;21.20;9.57;;;20.40;1.00;;;;;;5093099;28;20040;-70
2023/12/14 09:45:23;;;;;;;18.58;10.10;;;20.40;1.00;;;;;;5071287;28;20032;-70
2023/12/14 09:47:49;;;;;;;20.10;9.93;;;;;;;;;;5064323;28;20036;-69
2023/12/14 09:50:16;;;;;;;15.82;9.10;;;20.40;1.00;;;;;;5083875;28;20036;-70
2023/12/14 09:52:45;;;;;;;20.02;9.63;;;20.40;1.00;;;;;;5090349;28;20503;-70
2023/12/14 09:55:11;;;;;;;17.55;9.95;;;20.30;1.00;;;;;;5074518;28;20519;-70
2023/12/14 09:57:37;;;;;;;22.83;10.70;;;;;;;;;;5065748;28;20063;-71
2023/12/14 10:00:06;;;;;;;23.15;9.88;;;20.50;1.00;;;;;;5065737;28;20067;-70
2023/12/14 10:02:32;;;;;;;19.27;8.90;;;;;;;;;;5051664;28;20059;-70
2023/12/14 10:04:58;;;;;;;16.20;8.75;;;20.60;1.00;;;;;;5063230;28;20491;-70
2023/12/14 10:07:23;;;;;;;22.35;10.15;;;20.60;1.00;;;;;;5063665;28;20047;-70
2023/12/14 10:09:50;;;;;;;16.67;9.55;;;;;;;;;;5073425;28;20081;-70
2023/12/14 10:12:16;;;;;;;20.95;9.65;;;;;;;;;;5074285;28;20410;-70
2023/12/14 10:14:42;;;;;;;19.70;9.85;;;20.50;1.00;;;;;;5057442;28;20044;-70
2023/12/14 10:17:19;;;;;;;15.57;9.32;;;20.30;1.00;;;;;;5074112;28;20038;-70
2023/12/14 10:19:46;;;;;;;18.13;9.50;;;;;;;;;;5073918;28;20032;-70
2023/12/14 10:22:15;;;;;;;19.63;9.32;;;;;;;;;;5074203;28;20446;-67
2023/12/14 10:24:44;;;;;;;15.80;9.38;;;20.60;1.00;;;;;;5072980;28;20073;-70
2023/12/14 10:27:11;;;;;;;16.80;8.68;;;;;;;;;;5074268;28;20442;-70
2023/12/14 10:29:40;;;;;;;17.52;9.38;;;;;;;;;;5056954;28;20093;-74
2023/12/14 10:32:08;;;;;;;15.63;8.52;;;20.70;1.00;;;;;;5073969;28;20043;-74
2023/12/14 10:34:35;;;;;;;19.77;10.05;;;;;;;;;;5074030;28;20524;-74
2023/12/14 10:37:03;;;;;;;17.80;8.73;;;;;;;;;;5057332;28;20059;-74
2023/12/14 10:39:29;;;;;;;18.73;9.80;;;20.70;1.00;;;;;;5044406;28;20086;-74
2023/12/14 10:41:57;;;;;;;18.35;9.50;;;;;;;;;;5053693;28;20068;-74
2023/12/14 10:44:30;;;;;;;15.68;8.77;;;;;;;;;;5037145;28;20044;-74
2023/12/14 10:46:58;;;;;;;16.45;8.43;;;20.60;1.00;;;;;;5053968;28;20439;-73
2023/12/14 10:49:27;;;;;;;22.15;9.00;;;;;;;;;;5053403;28;20032;-74
2023/12/14 10:51:54;;;;;;;16.63;9.35;;;;;;;;;;5036630;28;20069;-74
2023/12/14 10:54:20;;;;;;;20.48;9.35;;;;;;;;;;5036807;28;20123;-73
2023/12/14 10:56:46;;;;;;;13.05;7.65;;;20.80;1.00;;;;;;5053672;28;20474;-74
2023/12/14 10:59:15;;;;;;;18.70;8.50;;;;;;;;;;5053567;28;20124;-74
2023/12/14 11:01:41;;;;;;;15.68;8.57;;;;;;;;;;5052894;28;20511;-74
2023/12/14 11:04:13;;;;;;;19.98;9.13;;;20.80;1.00;;;;;;5053320;28;20078;-74
2023/12/14 11:06:39;;;;;;;14.15;9.00;;;20.80;1.00;;;;;;5053662;28;20045;-74
2023/12/14 11:09:06;;;;;;;14.07;9.52;;;;;;;;;;5036855;28;20036;-74
2023/12/14 11:11:41;;;;;;;20.85;9.15;;;;;;;;;;5052442;28;20511;-73
2023/12/14 11:14:08;;;;;;;20.85;10.75;;;;;;;;;;5035399;28;20511;-74
2023/12/14 11:16:34;;;;;;;18.30;8.48;;;;;;;;;;5052578;28;20048;-74
2023/12/14 11:19:19;;;;;;;16.88;8.60;;;;;;;;;;5036042;28;20081;-74
2023/12/14 11:21:45;;;;;;;14.20;7.97;;;;;;;;;;5061866;28;20056;-74
2023/12/14 11:24:11;;;;;;;20.70;9.93;;;;;;;;;;5062316;28;20464;-75
2023/12/14 11:26:37;;;;;;;18.00;10.43;;;;;;;;;;5061877;28;20105;-74
2023/12/14 11:29:04;;;;;;;19.23;11.30;;;;;;;;;;5055189;28;20436;-74
2023/12/14 11:31:30;;;;;;;22.83;11.02;;;20.60;1.00;;;;;;5036160;28;20505;-74
2023/12/14 11:33:56;;;;;;;17.67;9.65;;;;;;;;;;5053151;28;20052;-74
2023/12/14 11:36:22;;;;;;;14.65;9.50;;;;;;;;;;5053012;28;20032;-73
2023/12/14 11:38:50;;;;;;;15.88;9.98;;;;;;;;;;5036680;28;20037;-74
2023/12/14 11:41:16;;;;;;;18.23;9.55;;;;;;;;;;5055093;28;20353;-74
2023/12/14 11:43:42;;;;;;;17.25;9.63;;;;;;;;;;5063559;28;20040;-74
2023/12/14 11:46:09;;;;;;;22.70;9.75;;;20.60;1.00;;;;;;5073116;28;20460;-73
2023/12/14 11:48:35;;;;;;;17.85;10.38;;;;;;;;;;5066857;28;20129;-73
2023/12/14 11:51:02;;;;;;;15.18;9.52;;;;;;;;;;5056221;28;20157;-75
2023/12/14 11:53:28;;;;;;;21.60;13.85;;;;;;;;;;5073367;28;20075;-73
2023/12/14 11:55:53;;;;;;;16.92;10.20;;;20.50;1.00;;;;;;5054610;28;20120;-74
2023/12/14 11:58:19;;;;;;;37.35;20.85;;;20.50;1.00;;;;;;5065310;28;20578;-74
2023/12/14 12:00:47;;;;;;;16.83;10.27;;;;;;;;;;5072176;28;20038;-73
2023/12/14 12:03:17;;;;;;;41.15;12.63;;;;;;;;;;5076569;28;20071;-74
2023/12/14 12:05:45;;;;;;;24.23;11.60;;;20.50;1.00;;;;;;5060052;28;20543;-74
2023/12/14 12:08:12;;;;;;;18.75;9.73;;;20.50;1.00;;;;;;5060100;28;20151;-74
2023/12/14 12:10:39;;;;;;;16.25;10.27;;;;;;;;;;5072897;28;20473;-75
2023/12/14 12:13:07;;;;;;;18.80;11.65;;;20.50;1.00;;;;;;5076329;28;20043;-75
2023/12/14 12:15:35;;;;;;;16.95;10.35;;;;;;;;;;5076595;28;20044;-74
2023/12/14 12:18:12;;;;;;;18.13;9.23;;;;;;;;;;5076441;28;20354;-75
2023/12/14 12:20:38;;;;;;;16.70;9.02;;;;;;;;;;5069586;28;20080;-73
2023/12/14 12:23:04;;;;;;;14.23;9.63;;;;;;;;;;5065132;28;20454;-75
2023/12/14 12:25:34;;;;;;;16.70;10.32;;;20.30;1.00;;;;;;5062756;28;20040;-75
2023/12/14 12:28:01;;;;;;;19.00;12.75;;;;;;;;;;5075530;28;20146;-74
2023/12/14 12:30:27;;;;;;;18.60;10.10;;;;;;;;;;5054755;28;20044;-76
2023/12/14 12:32:54;;;;;;;18.00;9.90;;;;;;;;;;5052079;28;20078;-73
2023/12/14 12:35:21;;;;;;;21.05;13.63;;;;;;;;;;5051040;28;20546;-75
2023/12/14 12:37:47;;;;;;;17.55;9.13;;;;;;;;;;5054021;28;20032;-77
2023/12/14 12:40:15;;;;;;;15.82;9.27;;;;;;;;;;5055866;28;20040;-76
2023/12/14 12:42:42;;;;;;;18.52;10.52;;;;;;;;;;5071788;28;20047;-74
2023/12/14 12:45:08;;;;;;;15.70;10.00;;;20.70;1.00;;;;;;5055537;28;20040;-74
2023/12/14 12:47:34;;;;;;;13.82;8.95;;;;;;;;;;5059333;28;20429;-75
2023/12/14 12:49:59;;;;;;;17.30;9.38;;;;;;;;;;5065067;28;20036;-74
2023/12/14 12:52:26;;;;;;;18.98;9.45;;;;;;;;;;5041891;28;20178;-74
2023/12/14 12:54:52;;;;;;;17.80;10.27;;;20.70;1.00;;;;;;5055257;28;20040;-73
2023/12/14 12:57:18;;;;;;;15.15;10.15;;;;;;;;;;5038841;28;20411;-74
2023/12/14 12:59:44;;;;;;;18.13;9.27;;;;;;;;;;5055094;28;20037;-75
2023/12/14 13:02:09;;;;;;;15.38;9.15;;;;;;;;;;5055903;28;20046;-74
2023/12/14 13:04:37;;;;;;;16.23;9.85;;;20.70;1.00;;;;;;5038949;28;20036;-74
2023/12/14 13:07:04;;;;;;;15.93;9.18;;;;;;;;;;5055696;28;20049;-74
2023/12/14 13:09:30;;;;;;;16.55;9.02;;;;;;;;;;5039263;28;20044;-71
2023/12/14 13:11:56;;;;;;;15.05;9.50;;;;;;;;;;5060204;28;20046;-74
2023/12/14 13:14:22;;;;;;;18.50;9.27;;;;;;;;;;5063709;28;20127;-72
2023/12/14 13:16:49;;;;;;;16.25;9.63;;;;;;;;;;5087622;28;20066;-74
2023/12/14 13:19:15;;;;;;;17.83;10.75;;;;;;;;;;5058700;28;20036;-74
2023/12/14 13:21:41;;;;;;;16.50;9.30;;;;;;;;;;5075043;28;20135;-74
2023/12/14 13:24:07;;;;;;;18.77;9.38;;;20.70;1.00;;;;;;5075106;28;20131;-72
2023/12/14 13:26:33;;;;;;;15.93;8.80;;;;;;;;;;5075028;28;20566;-74
2023/12/14 13:28:59;;;;;;;23.67;9.65;;;;;;;;;;5058347;28;20091;-75
2023/12/14 13:31:25;;;;;;;16.90;9.02;;;;;;;;;;5074249;28;20035;-74
2023/12/14 13:33:52;;;;;;;13.65;8.18;;;;;;;;;;5075090;28;20308;-72
2023/12/14 13:36:19;;;;;;;18.38;9.65;;;;;;;;;;5057991;28;20115;-74
2023/12/14 13:38:45;;;;;;;14.95;8.63;;;20.40;1.00;;;;;;5068014;28;20119;-74
2023/12/14 13:41:10;;;;;;;17.77;9.93;;;20.60;1.00;;;;;;5037774;28;20555;-74
2023/12/14 13:43:36;;;;;;;15.45;8.75;;;20.70;1.00;;;;;;5054620;28;20033;-73
2023/12/14 13:46:02;;;;;;;15.50;9.05;;;;;;;;;;5054463;28;20104;-74
2023/12/14 13:48:28;;;;;;;15.68;8.88;;;;;;;;;;5043196;28;20506;-76